Pagrindinis puslapis
METAR-TAF:

METAR-TAF

Oro uostai :

Santa Krus de la Siera, Bolivija

platuma: 17-48S, ilguma: 063-11W, Aukštis: 418 m

Dabartinis oras

Ataskaita buvo paskelbta 20 minutes, ne 17:00 UTC
Vėjas 15 kt iš Šiaurės Vakarų
Temperatūra 32°C
Drėgmė 41%
Slėgis 1015 hPa
Matomumas 10 km arba daugiau
Mažai debesys ne aukštis 2000 ft

METAR: SLET 091700Z 31015KT 9999 FEW020 32/17 Q1015

Laikas: 13:20 (17:20 UTC)

Prognozė

Ataskaita buvo paskelbta 7 valandos ir 20 minutes, ne 10:00 UTC
Prognozė galioja nuo 09 metu 12 UTC su 10 metu 12 UTC
Vėjas 16 kt iš Šiaurės/Šiaurės Vakarų
Matomumas: 8000 m
Tapsmas
nuo 09 metu 23 UTC su 10 metu 01 UTC
Vėjas 8 kt iš Šiaurės/Šiaurės Vakarų

TAF: SLET 091000Z 0912/1012 33016KT 8000 NSC TX32/0919Z TN20/1011Z BECMG 0923/1001 33008KT NSC

Orai ataskaitas ir orų prognozės (METAR, TAF).

turimą stotys yra geltonos ir raudonos taškus žemėlapyje.

Perkelti pele per norėdami pamatyti stoties vardą.

Tada spustelėkite, norėdami matyti oro stebėjimo ir prognozės.

Norėdami pakeisti žemėlapį: spustelėkite ant žalios mygtukų su juodo kryžiaus žemyn,; žalią mygtuką su brūkšneliu, jei norite nutolinti; arba žalių rodyklių gretimoms žemėlapius.


METAR-TAF: